createdAt,value
2023-12-11T00:00:07.344Z,99.90
2023-12-11T00:02:35.862Z,99.90
2023-12-11T00:05:04.860Z,99.90
2023-12-11T00:07:33.280Z,99.90
2023-12-11T00:10:03.137Z,99.90
2023-12-11T00:12:31.562Z,99.90
2023-12-11T00:15:00.904Z,99.90
2023-12-11T00:17:30.812Z,99.90
2023-12-11T00:19:59.576Z,99.90
2023-12-11T00:22:27.903Z,99.90
2023-12-11T00:24:56.587Z,99.90
2023-12-11T00:27:26.392Z,99.90
2023-12-11T00:29:54.794Z,99.90
2023-12-11T00:32:23.911Z,99.90
2023-12-11T00:34:52.499Z,99.90
2023-12-11T00:37:20.972Z,99.90
2023-12-11T00:39:49.524Z,99.90
2023-12-11T00:42:17.942Z,99.90
2023-12-11T00:44:47.803Z,99.90
2023-12-11T00:47:16.278Z,99.90
2023-12-11T00:49:45.054Z,99.90
2023-12-11T00:52:13.510Z,99.90
2023-12-11T00:54:42.045Z,99.90
2023-12-11T00:57:10.584Z,99.90
2023-12-11T00:59:40.420Z,99.90
2023-12-11T01:02:10.171Z,99.90
2023-12-11T01:04:38.750Z,99.90
2023-12-11T01:07:07.489Z,99.90
2023-12-11T01:09:36.064Z,99.90
2023-12-11T01:12:04.791Z,99.90
2023-12-11T01:14:33.547Z,99.90
2023-12-11T01:17:35.983Z,99.90
2023-12-11T01:19:51.874Z,99.90
2023-12-11T01:22:20.349Z,99.90
2023-12-11T01:24:48.729Z,99.90
2023-12-11T01:27:17.312Z,99.90
2023-12-11T01:29:45.662Z,99.90
2023-12-11T01:32:14.195Z,99.90
2023-12-11T01:34:42.871Z,99.90
2023-12-11T01:37:12.834Z,99.90
2023-12-11T01:39:42.154Z,99.90
2023-12-11T01:42:11.663Z,99.90
2023-12-11T01:44:40.156Z,99.90
2023-12-11T01:47:08.999Z,99.90
2023-12-11T01:49:38.256Z,99.90
2023-12-11T01:52:08.331Z,99.90
2023-12-11T01:54:40.246Z,99.90
2023-12-11T01:57:10.495Z,99.90
2023-12-11T01:59:39.992Z,99.90
2023-12-11T02:02:08.340Z,99.90
2023-12-11T02:04:36.969Z,99.90
2023-12-11T02:07:06.043Z,99.90
2023-12-11T02:09:34.682Z,99.90
2023-12-11T02:12:06.435Z,99.90
2023-12-11T02:14:35.007Z,99.90
2023-12-11T02:17:03.319Z,99.90
2023-12-11T02:19:31.744Z,99.90
2023-12-11T02:22:00.192Z,99.90
2023-12-11T02:24:34.361Z,99.90
2023-12-11T02:27:05.020Z,99.90
2023-12-11T02:29:33.363Z,99.90
2023-12-11T02:32:01.742Z,99.90
2023-12-11T02:34:30.286Z,99.90
2023-12-11T02:36:58.866Z,99.90
2023-12-11T02:39:27.284Z,99.90
2023-12-11T02:41:56.004Z,99.90
2023-12-11T02:44:25.755Z,99.90
2023-12-11T02:46:54.308Z,99.90
2023-12-11T02:49:22.712Z,99.90
2023-12-11T02:51:51.250Z,99.90
2023-12-11T02:54:19.706Z,99.90
2023-12-11T02:56:48.138Z,99.90
2023-12-11T02:59:16.605Z,99.90
2023-12-11T03:01:46.624Z,99.90
2023-12-11T03:04:15.389Z,99.90
2023-12-11T03:06:43.942Z,99.90
2023-12-11T03:09:12.480Z,99.90
2023-12-11T03:11:40.866Z,99.90
2023-12-11T03:14:09.278Z,99.90
2023-12-11T03:16:37.734Z,99.90
2023-12-11T03:19:07.881Z,99.90
2023-12-11T03:21:36.347Z,99.90
2023-12-11T03:24:07.784Z,99.90
2023-12-11T03:26:36.188Z,99.90
2023-12-11T03:29:04.666Z,99.90
2023-12-11T03:31:33.092Z,99.90
2023-12-11T03:34:01.763Z,99.90
2023-12-11T03:36:31.511Z,99.90
2023-12-11T03:38:59.954Z,99.90
2023-12-11T03:41:28.640Z,99.90
2023-12-11T03:43:57.008Z,99.90
2023-12-11T03:46:25.770Z,99.90
2023-12-11T03:48:54.416Z,99.90
2023-12-11T03:51:22.830Z,99.90
2023-12-11T03:53:52.738Z,99.90
2023-12-11T03:56:21.253Z,99.90
2023-12-11T03:58:49.665Z,99.90
2023-12-11T04:01:18.314Z,99.90
2023-12-11T04:03:47.231Z,99.90
2023-12-11T04:06:15.911Z,99.90
2023-12-11T04:08:44.595Z,99.90
2023-12-11T04:11:14.928Z,99.90
2023-12-11T04:13:43.658Z,99.90
2023-12-11T04:16:13.343Z,99.90
2023-12-11T04:18:42.455Z,99.90
2023-12-11T04:21:11.192Z,99.90
2023-12-11T04:23:39.647Z,99.90
2023-12-11T04:26:08.416Z,99.90
2023-12-11T04:28:38.274Z,99.90
2023-12-11T04:31:06.871Z,99.90
2023-12-11T04:33:39.246Z,99.90
2023-12-11T04:36:10.117Z,99.90
2023-12-11T04:38:39.025Z,99.90
2023-12-11T04:41:08.053Z,99.90
2023-12-11T04:43:38.091Z,99.90
2023-12-11T04:46:06.823Z,99.90
2023-12-11T04:48:35.462Z,99.90
2023-12-11T04:51:04.331Z,99.90
2023-12-11T04:53:32.953Z,99.90
2023-12-11T04:56:01.564Z,99.90
2023-12-11T04:58:30.149Z,99.90
2023-12-11T05:01:00.167Z,99.90
2023-12-11T05:03:28.731Z,99.90
2023-12-11T05:05:57.194Z,99.90
2023-12-11T05:08:29.058Z,99.90
2023-12-11T05:10:58.791Z,99.90
2023-12-11T05:13:27.327Z,99.90
2023-12-11T05:15:56.667Z,99.90
2023-12-11T05:18:26.615Z,99.90
2023-12-11T05:20:54.985Z,99.90
2023-12-11T05:23:23.530Z,99.90
2023-12-11T05:25:52.109Z,99.90
2023-12-11T05:28:20.862Z,99.90
2023-12-11T05:30:49.294Z,99.90
2023-12-11T05:33:17.842Z,99.90
2023-12-11T05:35:48.248Z,99.90
2023-12-11T05:38:17.031Z,99.90
2023-12-11T05:40:46.641Z,99.90
2023-12-11T05:43:15.783Z,99.90
2023-12-11T05:45:44.576Z,99.90
2023-12-11T05:48:13.415Z,99.90
2023-12-11T05:50:41.916Z,99.90
2023-12-11T05:53:11.979Z,99.90
2023-12-11T05:55:40.577Z,99.90
2023-12-11T05:58:09.040Z,99.90
2023-12-11T06:00:37.788Z,99.90
2023-12-11T06:03:06.354Z,99.90
2023-12-11T06:05:34.970Z,99.90
2023-12-11T06:08:03.581Z,99.90
2023-12-11T06:10:33.463Z,99.90
2023-12-11T06:13:02.326Z,99.90
2023-12-11T06:15:30.901Z,99.90
2023-12-11T06:18:00.197Z,99.90
2023-12-11T06:20:28.944Z,99.90
2023-12-11T06:22:57.472Z,99.90
2023-12-11T06:25:25.969Z,99.90
2023-12-11T06:27:56.655Z,99.90
2023-12-11T06:30:25.824Z,99.90
2023-12-11T06:32:54.388Z,99.90
2023-12-11T06:35:22.854Z,99.90
2023-12-11T06:37:51.849Z,99.90
2023-12-11T06:40:20.261Z,99.90
2023-12-11T06:42:48.784Z,99.90
2023-12-11T06:45:18.813Z,99.90
2023-12-11T06:47:47.207Z,99.90
2023-12-11T06:50:17.956Z,99.90
2023-12-11T06:52:46.773Z,99.90
2023-12-11T06:55:15.836Z,99.90
2023-12-11T06:57:44.525Z,99.90
2023-12-11T07:00:14.157Z,99.90
2023-12-11T07:02:44.039Z,99.90
2023-12-11T07:05:13.170Z,99.90
2023-12-11T07:07:42.034Z,99.90
2023-12-11T07:10:11.521Z,99.90
2023-12-11T07:12:41.640Z,99.90
2023-12-11T07:15:11.234Z,99.90
2023-12-11T07:17:40.893Z,99.90
2023-12-11T07:20:12.995Z,99.90
2023-12-11T07:22:41.597Z,99.90
2023-12-11T07:25:10.938Z,99.90
2023-12-11T07:27:39.641Z,99.90
2023-12-11T07:30:09.545Z,99.90
2023-12-11T07:32:38.357Z,99.90
2023-12-11T07:35:09.641Z,99.90
2023-12-11T07:37:42.608Z,99.90
2023-12-11T07:40:12.310Z,99.90
2023-12-11T07:42:41.248Z,99.90
2023-12-11T07:45:10.459Z,99.90
2023-12-11T07:47:39.315Z,99.90
2023-12-11T07:50:08.840Z,99.90
2023-12-11T07:52:37.678Z,99.90
2023-12-11T07:55:08.392Z,99.90
2023-12-11T07:57:37.354Z,99.90
2023-12-11T08:00:06.739Z,99.90
2023-12-11T08:02:37.068Z,99.90
2023-12-11T08:05:06.037Z,99.90
2023-12-11T08:07:35.467Z,99.90
2023-12-11T08:10:04.391Z,99.90
2023-12-11T08:12:35.066Z,99.90
2023-12-11T08:15:04.741Z,99.90
2023-12-11T08:17:33.915Z,99.90
2023-12-11T08:20:02.897Z,99.90
2023-12-11T08:22:31.633Z,99.90
2023-12-11T08:25:00.609Z,99.90
2023-12-11T08:27:29.356Z,99.90
2023-12-11T08:29:59.420Z,99.90
2023-12-11T08:32:27.938Z,99.90
2023-12-11T08:34:56.696Z,99.90
2023-12-11T08:37:25.455Z,99.90
2023-12-11T08:39:54.207Z,99.90
2023-12-11T08:42:22.821Z,99.90
2023-12-11T08:44:51.295Z,99.90
2023-12-11T08:47:21.583Z,99.90
2023-12-11T08:49:50.082Z,99.90
2023-12-11T08:52:18.993Z,99.90
2023-12-11T08:54:48.392Z,99.90
2023-12-11T08:57:16.993Z,99.90
2023-12-11T08:59:45.511Z,99.90
2023-12-11T09:02:14.495Z,99.90
2023-12-11T09:04:45.023Z,99.90
2023-12-11T09:07:13.727Z,99.90
2023-12-11T09:09:42.223Z,99.90
2023-12-11T09:12:15.767Z,99.90
2023-12-11T09:14:51.884Z,99.90
2023-12-11T09:17:21.407Z,99.90
2023-12-11T09:19:55.274Z,99.90
2023-12-11T09:22:25.946Z,99.90
2023-12-11T09:24:55.138Z,99.90
2023-12-11T09:27:24.005Z,99.90
2023-12-11T09:29:52.900Z,99.90
2023-12-11T09:32:21.759Z,99.90
2023-12-11T09:34:52.904Z,99.90
2023-12-11T09:37:22.850Z,99.90
2023-12-11T09:39:52.103Z,99.90
2023-12-11T09:42:21.362Z,99.90
2023-12-11T09:44:51.156Z,98.50
2023-12-11T09:47:25.925Z,94.60
2023-12-11T09:49:56.426Z,92.70
2023-12-11T09:52:25.538Z,91.30
2023-12-11T09:54:54.451Z,89.60
2023-12-11T09:57:24.186Z,87.00
2023-12-11T09:59:53.692Z,86.30
2023-12-11T10:02:27.286Z,84.40
2023-12-11T10:05:06.553Z,84.10
2023-12-11T10:07:35.395Z,85.50
2023-12-11T10:10:22.913Z,84.50
2023-12-11T10:12:52.000Z,85.90
2023-12-11T10:15:24.505Z,88.20
2023-12-11T10:18:07.159Z,90.20
2023-12-11T10:20:40.230Z,91.60
2023-12-11T10:23:17.042Z,93.30
2023-12-11T10:25:47.891Z,94.40
2023-12-11T10:28:17.603Z,95.00
2023-12-11T10:30:56.372Z,95.20
2023-12-11T10:33:26.825Z,95.10
2023-12-11T10:36:11.171Z,95.40
2023-12-11T10:39:47.432Z,94.70
2023-12-11T10:42:35.687Z,94.80
2023-12-11T10:45:04.430Z,92.60
2023-12-11T10:47:33.744Z,93.20
2023-12-11T10:50:04.242Z,92.40
2023-12-11T10:52:34.729Z,92.10
2023-12-11T10:55:03.119Z,91.20
2023-12-11T10:57:33.555Z,90.40
2023-12-11T11:00:02.611Z,90.00
2023-12-11T11:02:31.785Z,87.80
2023-12-11T11:05:00.442Z,83.20
2023-12-11T11:07:33.886Z,84.00
2023-12-11T11:10:08.401Z,85.10
2023-12-11T11:12:43.827Z,82.60
2023-12-11T11:15:12.478Z,81.30
2023-12-11T11:18:00.743Z,83.20
2023-12-11T11:20:30.224Z,81.70
2023-12-11T11:23:23.954Z,81.60
2023-12-11T11:25:54.836Z,83.40
2023-12-11T11:28:42.057Z,86.50
2023-12-11T11:31:19.801Z,85.80
2023-12-11T11:33:58.014Z,88.00
2023-12-11T11:36:46.274Z,86.30
2023-12-11T11:39:15.470Z,86.80
2023-12-11T11:41:46.258Z,85.10
2023-12-11T11:44:17.251Z,85.70
2023-12-11T11:46:53.037Z,83.40
2023-12-11T11:49:35.550Z,85.70
2023-12-11T11:52:08.556Z,84.20
2023-12-11T11:54:39.045Z,84.90
2023-12-11T11:57:09.599Z,85.30
2023-12-11T11:59:46.914Z,85.20
2023-12-11T12:02:23.261Z,85.10
2023-12-11T12:04:52.099Z,84.20
2023-12-11T12:07:20.784Z,84.20
2023-12-11T12:09:54.582Z,83.50
2023-12-11T12:12:24.609Z,83.10
2023-12-11T12:15:03.061Z,81.50
2023-12-11T12:17:31.827Z,80.80
2023-12-11T12:20:01.023Z,80.70
2023-12-11T12:22:29.675Z,81.40
2023-12-11T12:24:58.310Z,81.40
2023-12-11T12:27:29.194Z,80.50
2023-12-11T12:29:58.460Z,80.90
2023-12-11T12:32:26.958Z,81.60
2023-12-11T12:34:56.779Z,82.80
2023-12-11T12:37:25.383Z,79.90
2023-12-11T12:39:58.378Z,79.50
2023-12-11T12:42:33.312Z,79.20
2023-12-11T12:45:01.949Z,79.30
2023-12-11T12:47:31.643Z,79.00
2023-12-11T12:50:00.337Z,80.20
2023-12-11T12:52:30.399Z,79.40
2023-12-11T12:54:58.954Z,79.80
2023-12-11T12:57:27.466Z,80.50
2023-12-11T12:59:57.231Z,81.70
2023-12-11T13:02:25.537Z,79.80
2023-12-11T13:04:55.165Z,79.20
2023-12-11T13:07:24.667Z,81.60
2023-12-11T13:09:54.916Z,80.90
2023-12-11T13:12:25.044Z,81.30
2023-12-11T13:14:54.814Z,81.90
2023-12-11T13:17:24.494Z,82.80
2023-12-11T13:19:53.214Z,84.00
2023-12-11T13:22:21.604Z,83.80
2023-12-11T13:24:50.349Z,84.50
2023-12-11T13:27:18.985Z,85.40
2023-12-11T13:29:47.297Z,85.80
2023-12-11T13:32:16.425Z,86.10
2023-12-11T13:34:46.366Z,86.60
2023-12-11T13:37:14.727Z,88.20
2023-12-11T13:39:43.407Z,89.10
2023-12-11T13:42:11.667Z,88.30
2023-12-11T13:44:40.018Z,90.10
2023-12-11T13:47:08.534Z,93.70
2023-12-11T13:49:37.102Z,97.00
2023-12-11T13:52:07.723Z,99.90
2023-12-11T13:54:36.088Z,99.90
2023-12-11T13:57:04.776Z,99.90
2023-12-11T13:59:33.205Z,99.90
2023-12-11T14:02:01.605Z,99.90
2023-12-11T14:04:30.372Z,99.90
2023-12-11T14:06:59.132Z,99.90
2023-12-11T14:09:33.014Z,99.90
2023-12-11T14:12:02.596Z,99.90
2023-12-11T14:14:30.931Z,99.90
2023-12-11T14:16:59.668Z,99.90
2023-12-11T14:19:28.631Z,99.90
2023-12-11T14:21:57.058Z,99.90
2023-12-11T14:24:28.794Z,99.90
2023-12-11T14:26:57.704Z,99.90
2023-12-11T14:29:26.237Z,99.90
2023-12-11T14:31:54.676Z,99.90
2023-12-11T14:34:24.002Z,99.90
2023-12-11T14:36:52.413Z,99.90
2023-12-11T14:39:21.747Z,99.90
2023-12-11T14:41:51.965Z,99.90
2023-12-11T14:44:20.676Z,99.90
2023-12-11T14:46:49.165Z,99.90
2023-12-11T14:49:17.708Z,99.90
2023-12-11T14:51:46.163Z,99.90
2023-12-11T14:54:14.907Z,99.90
2023-12-11T14:56:44.115Z,99.90
2023-12-11T14:59:13.957Z,99.90
2023-12-11T15:01:42.569Z,99.90
2023-12-11T15:04:11.650Z,99.90
2023-12-11T15:06:41.410Z,99.90
2023-12-11T15:09:09.902Z,99.90
2023-12-11T15:11:38.398Z,99.90
2023-12-11T15:14:09.558Z,99.90
2023-12-11T15:16:42.363Z,99.90
2023-12-11T15:19:11.225Z,99.90
2023-12-11T15:21:39.819Z,99.90
2023-12-11T15:24:09.167Z,99.90
2023-12-11T15:26:38.360Z,99.90
2023-12-11T15:29:08.519Z,99.90
2023-12-11T15:31:37.068Z,99.90
2023-12-11T15:34:07.328Z,99.90
2023-12-11T15:36:36.063Z,99.90
2023-12-11T15:39:05.029Z,99.90
2023-12-11T15:41:33.572Z,99.90
2023-12-11T15:44:01.931Z,99.90
2023-12-11T15:46:31.624Z,99.90
2023-12-11T15:49:00.336Z,99.90
2023-12-11T15:51:31.046Z,99.90
2023-12-11T15:53:59.576Z,99.90
2023-12-11T15:56:32.989Z,99.90
2023-12-11T15:59:01.498Z,99.90
2023-12-11T16:01:29.963Z,99.90
2023-12-11T16:03:59.243Z,99.90
2023-12-11T16:06:32.313Z,99.90
2023-12-11T16:09:01.853Z,99.90
2023-12-11T16:11:34.479Z,99.90
2023-12-11T16:14:03.130Z,99.90
2023-12-11T16:16:31.957Z,99.90
2023-12-11T16:19:00.961Z,99.90
2023-12-11T16:21:31.059Z,99.90
2023-12-11T16:24:01.056Z,99.90
2023-12-11T16:26:29.372Z,99.90
2023-12-11T16:28:58.011Z,99.90
2023-12-11T16:31:26.974Z,99.90
2023-12-11T16:33:55.563Z,99.90
2023-12-11T16:36:23.948Z,99.90
2023-12-11T16:38:53.851Z,99.90
2023-12-11T16:41:26.195Z,99.90
2023-12-11T16:43:55.566Z,99.90
2023-12-11T16:46:24.149Z,99.90
2023-12-11T16:48:52.922Z,99.90
2023-12-11T16:51:21.539Z,99.90
2023-12-11T16:53:49.853Z,99.90
2023-12-11T16:56:19.982Z,99.90
2023-12-11T16:58:48.422Z,99.90
2023-12-11T17:01:16.967Z,99.90
2023-12-11T17:03:45.601Z,99.90
2023-12-11T17:06:17.946Z,99.90
2023-12-11T17:08:47.037Z,99.90
2023-12-11T17:11:15.763Z,99.90
2023-12-11T17:13:45.616Z,99.90
2023-12-11T17:16:14.391Z,99.90
2023-12-11T17:18:44.196Z,99.90
2023-12-11T17:21:22.404Z,99.90
2023-12-11T17:23:58.178Z,99.90
2023-12-11T17:26:26.721Z,99.90
2023-12-11T17:28:57.884Z,99.90
2023-12-11T17:31:27.486Z,99.90
2023-12-11T17:33:56.105Z,99.90
2023-12-11T17:36:25.558Z,99.90
2023-12-11T17:38:53.972Z,99.90
2023-12-11T17:41:22.727Z,99.90
2023-12-11T17:43:51.134Z,99.90
2023-12-11T17:46:20.949Z,99.90
2023-12-11T17:48:49.447Z,99.90
2023-12-11T17:51:17.846Z,99.90
2023-12-11T17:53:46.349Z,99.90
2023-12-11T17:56:16.453Z,99.90
2023-12-11T17:58:45.139Z,99.90
2023-12-11T18:01:14.278Z,99.90
2023-12-11T18:03:44.368Z,99.90
2023-12-11T18:06:17.348Z,99.90
2023-12-11T18:08:46.576Z,99.90
2023-12-11T18:11:15.000Z,99.90
2023-12-11T18:13:43.785Z,99.90
2023-12-11T18:16:12.429Z,99.90
2023-12-11T18:18:40.851Z,99.90
2023-12-11T18:21:11.704Z,99.90
2023-12-11T18:23:40.170Z,99.90
2023-12-11T18:26:13.023Z,99.90
2023-12-11T18:28:41.607Z,99.90
2023-12-11T18:31:10.175Z,99.90
2023-12-11T18:33:38.756Z,99.90
2023-12-11T18:36:08.066Z,99.90
2023-12-11T18:38:38.648Z,99.90
2023-12-11T18:41:06.991Z,99.90
2023-12-11T18:43:37.383Z,99.90
2023-12-11T18:46:06.158Z,99.90
2023-12-11T18:48:34.624Z,99.90
2023-12-11T18:51:02.953Z,99.90
2023-12-11T18:53:31.496Z,99.90
2023-12-11T18:56:01.803Z,99.90
2023-12-11T18:58:29.909Z,99.90
2023-12-11T19:01:01.138Z,99.90
2023-12-11T19:03:29.974Z,99.90
2023-12-11T19:05:58.356Z,99.90
2023-12-11T19:08:27.375Z,99.90
2023-12-11T19:10:55.857Z,99.90
2023-12-11T19:13:25.817Z,99.90
2023-12-11T19:15:54.247Z,99.90
2023-12-11T19:18:25.797Z,99.90
2023-12-11T19:20:54.501Z,99.90
2023-12-11T19:23:23.070Z,99.90
2023-12-11T19:25:52.551Z,99.90
2023-12-11T19:28:21.425Z,99.90
2023-12-11T19:30:51.408Z,99.90
2023-12-11T19:33:19.919Z,99.90
2023-12-11T19:35:48.343Z,99.90
2023-12-11T19:38:16.966Z,99.90
2023-12-11T19:40:45.648Z,99.90
2023-12-11T19:43:14.507Z,99.90
2023-12-11T19:45:43.048Z,99.90
2023-12-11T19:48:12.902Z,99.90
2023-12-11T19:50:41.383Z,99.90
2023-12-11T19:53:09.956Z,99.90
2023-12-11T19:55:38.846Z,99.90
2023-12-11T19:58:07.210Z,99.90
2023-12-11T20:00:35.712Z,99.90
2023-12-11T20:03:04.052Z,99.90
2023-12-11T20:05:33.806Z,99.90
2023-12-11T20:08:02.180Z,99.90
2023-12-11T20:10:30.957Z,99.90
2023-12-11T20:12:59.694Z,99.90
2023-12-11T20:15:28.114Z,99.90
2023-12-11T20:17:56.534Z,99.90
2023-12-11T20:20:26.831Z,99.90
2023-12-11T20:22:56.685Z,99.90
2023-12-11T20:25:25.155Z,99.90
2023-12-11T20:27:53.560Z,99.90
2023-12-11T20:30:21.894Z,99.90
2023-12-11T20:32:50.781Z,99.90
2023-12-11T20:35:19.400Z,99.90
2023-12-11T20:37:47.965Z,99.90
2023-12-11T20:40:18.465Z,99.90
2023-12-11T20:42:46.898Z,99.90
2023-12-11T20:45:17.359Z,99.90
2023-12-11T20:47:49.340Z,99.90
2023-12-11T20:50:17.727Z,99.90
2023-12-11T20:52:46.120Z,99.90
2023-12-11T20:55:14.562Z,99.90
2023-12-11T20:57:44.293Z,99.90
2023-12-11T21:00:13.762Z,99.90
2023-12-11T21:02:44.028Z,99.90
2023-12-11T21:05:12.612Z,99.90
2023-12-11T21:07:42.705Z,99.90
2023-12-11T21:10:11.579Z,99.90
2023-12-11T21:12:40.021Z,99.90
2023-12-11T21:15:10.668Z,99.90
2023-12-11T21:17:42.371Z,99.90
2023-12-11T21:20:11.776Z,99.90
2023-12-11T21:22:40.909Z,99.90
2023-12-11T21:25:09.523Z,99.90
2023-12-11T21:27:37.786Z,99.90
2023-12-11T21:30:10.854Z,99.90
2023-12-11T21:32:43.873Z,99.90
2023-12-11T21:35:14.076Z,99.90
2023-12-11T21:37:42.768Z,99.90
2023-12-11T21:40:11.781Z,99.90
2023-12-11T21:42:40.147Z,99.90
2023-12-11T21:45:10.936Z,99.90
2023-12-11T21:47:39.386Z,99.90
2023-12-11T21:50:10.205Z,99.90
2023-12-11T21:52:38.552Z,99.90
2023-12-11T21:55:07.876Z,99.90
2023-12-11T21:57:36.746Z,99.90
2023-12-11T22:00:05.835Z,99.90
2023-12-11T22:02:35.602Z,99.90
2023-12-11T22:05:04.143Z,99.90
2023-12-11T22:07:32.660Z,99.90
2023-12-11T22:10:01.304Z,99.90
2023-12-11T22:12:29.632Z,99.90
2023-12-11T22:14:57.865Z,99.90
2023-12-11T22:17:26.145Z,99.90
2023-12-11T22:19:58.260Z,99.90
2023-12-11T22:22:26.732Z,99.90
2023-12-11T22:24:55.090Z,99.90
2023-12-11T22:27:23.813Z,99.90
2023-12-11T22:29:52.137Z,99.90
2023-12-11T22:32:20.413Z,99.90
2023-12-11T22:34:48.737Z,99.90
2023-12-11T22:37:18.385Z,99.90
2023-12-11T22:39:46.964Z,99.90
2023-12-11T22:42:15.561Z,99.90
2023-12-11T22:44:44.035Z,99.90
2023-12-11T22:47:13.162Z,99.90
2023-12-11T22:49:41.483Z,99.90
2023-12-11T22:52:09.894Z,99.90
2023-12-11T22:54:39.822Z,99.90
2023-12-11T22:57:08.092Z,99.90
2023-12-11T22:59:36.403Z,99.90
2023-12-11T23:02:04.900Z,99.90
2023-12-11T23:04:33.789Z,99.90
2023-12-11T23:07:02.103Z,99.90
2023-12-11T23:09:30.548Z,99.90
2023-12-11T23:12:00.320Z,99.90
2023-12-11T23:14:28.567Z,99.90
2023-12-11T23:16:56.848Z,99.90
2023-12-11T23:19:25.357Z,99.90
2023-12-11T23:21:53.685Z,99.90
2023-12-11T23:24:21.919Z,99.90
2023-12-11T23:26:50.188Z,99.90
2023-12-11T23:29:20.617Z,99.90
2023-12-11T23:31:48.984Z,99.90
2023-12-11T23:34:17.708Z,99.90
2023-12-11T23:36:46.104Z,99.90
2023-12-11T23:39:14.610Z,99.90
2023-12-11T23:41:44.823Z,99.90
2023-12-11T23:44:13.397Z,99.90
2023-12-11T23:46:43.313Z,99.90
2023-12-11T23:49:11.752Z,99.90
2023-12-11T23:51:40.036Z,99.90
2023-12-11T23:54:08.484Z,99.90
2023-12-11T23:56:36.744Z,99.90
2023-12-11T23:59:06.353Z,99.90
